createdAt,value
2022-11-05T00:02:08.730Z,101158.06
2022-11-05T00:04:56.654Z,101172.03
2022-11-05T00:07:56.022Z,101177.88
2022-11-05T00:10:35.788Z,101182.94
2022-11-05T00:13:27.659Z,101178.72
2022-11-05T00:16:16.077Z,101200.41
2022-11-05T00:18:45.957Z,101196.91
2022-11-05T00:21:38.838Z,101192.16
2022-11-05T00:24:30.056Z,101194.22
2022-11-05T00:26:59.875Z,101165.88
2022-11-05T00:29:30.244Z,101195.09
2022-11-05T00:32:00.419Z,101222.59
2022-11-05T00:34:30.379Z,101186.78
2022-11-05T00:37:00.234Z,101225.16
2022-11-05T00:39:30.132Z,101231.81
2022-11-05T00:42:20.422Z,101230.00
2022-11-05T00:45:02.799Z,101235.16
2022-11-05T00:47:53.011Z,101216.41
2022-11-05T00:50:24.580Z,101236.22
2022-11-05T00:52:57.741Z,101261.38
2022-11-05T00:55:38.991Z,101260.97
2022-11-05T00:58:14.146Z,101162.16
2022-11-05T01:00:46.630Z,101267.25
2022-11-05T01:03:18.531Z,101260.63
2022-11-05T01:05:52.267Z,101199.28
2022-11-05T01:08:25.260Z,101269.81
2022-11-05T01:10:57.582Z,101271.47
2022-11-05T01:13:30.768Z,101193.72
2022-11-05T01:16:07.294Z,101290.63
2022-11-05T01:18:40.150Z,101274.41
2022-11-05T01:21:16.644Z,101203.91
2022-11-05T01:23:46.477Z,101285.03
2022-11-05T01:26:16.886Z,101300.63
2022-11-05T01:28:52.784Z,101284.00
2022-11-05T01:31:23.441Z,101273.59
2022-11-05T01:33:53.676Z,101298.41
2022-11-05T01:36:23.596Z,101307.34
2022-11-05T01:38:53.464Z,101279.16
2022-11-05T01:41:23.345Z,101305.72
2022-11-05T01:43:56.463Z,101231.88
2022-11-05T01:46:37.786Z,101313.25
2022-11-05T01:49:51.272Z,101320.28
2022-11-05T01:52:23.438Z,101299.88
2022-11-05T01:54:53.274Z,101321.75
2022-11-05T01:57:23.146Z,101322.19
2022-11-05T01:59:58.087Z,101262.97
2022-11-05T02:02:28.768Z,101327.28
2022-11-05T02:05:05.410Z,101239.88
2022-11-05T02:07:35.644Z,101309.97
2022-11-05T02:10:18.885Z,101279.13
2022-11-05T02:12:49.502Z,101330.03
2022-11-05T02:15:29.256Z,101313.38
2022-11-05T02:17:59.135Z,101326.72
2022-11-05T02:20:48.010Z,101256.28
2022-11-05T02:23:24.301Z,101329.66
2022-11-05T02:26:11.971Z,101336.31
2022-11-05T02:29:03.254Z,101337.00
2022-11-05T02:31:55.922Z,101334.09
2022-11-05T02:34:50.673Z,101247.50
2022-11-05T02:38:00.700Z,101337.56
2022-11-05T02:40:55.575Z,101272.97
2022-11-05T02:43:25.383Z,101336.81
2022-11-05T02:46:02.277Z,101349.09
2022-11-05T02:48:50.237Z,101256.31
2022-11-05T02:51:40.202Z,101332.06
2022-11-05T02:54:24.414Z,101333.94
2022-11-05T02:56:58.184Z,101346.00
2022-11-05T02:59:28.657Z,101318.53
2022-11-05T03:01:59.635Z,101331.06
2022-11-05T03:04:31.264Z,101249.31
2022-11-05T03:07:21.233Z,101332.31
2022-11-05T03:10:27.479Z,101332.50
2022-11-05T03:13:23.574Z,101298.56
2022-11-05T03:16:02.093Z,101169.38
2022-11-05T03:18:52.374Z,101261.13
2022-11-05T03:21:40.918Z,101322.72
2022-11-05T03:24:35.592Z,101294.44
2022-11-05T03:27:32.211Z,101216.84
2022-11-05T03:30:56.725Z,101294.81
2022-11-05T03:33:31.229Z,101253.56
2022-11-05T03:36:06.306Z,101280.28
2022-11-05T03:38:41.066Z,101281.94
2022-11-05T03:41:15.013Z,101279.88
2022-11-05T03:43:53.076Z,101269.06
2022-11-05T03:47:07.899Z,101126.94
2022-11-05T03:49:56.584Z,101265.28
2022-11-05T03:52:31.055Z,101265.28
2022-11-05T03:55:03.576Z,101264.78
2022-11-05T03:57:38.311Z,101258.97
2022-11-05T04:00:11.100Z,101257.25
2022-11-05T04:02:44.078Z,101254.75
2022-11-05T04:05:15.025Z,101250.38
2022-11-05T04:08:06.003Z,101134.72
2022-11-05T04:10:55.976Z,101242.63
2022-11-05T04:13:26.320Z,101233.28
2022-11-05T04:16:16.174Z,101234.31
2022-11-05T04:18:46.456Z,101195.97
2022-11-05T04:21:34.965Z,101221.00
2022-11-05T04:24:11.010Z,101222.66
2022-11-05T04:26:44.629Z,101206.00
2022-11-05T04:29:33.071Z,101189.34
2022-11-05T04:32:02.966Z,101196.00
2022-11-05T04:34:32.884Z,101177.72
2022-11-05T04:37:02.742Z,101187.94
2022-11-05T04:39:32.605Z,101181.06
2022-11-05T04:42:02.544Z,101180.22
2022-11-05T04:44:32.704Z,101167.38
2022-11-05T04:47:02.735Z,101169.41
2022-11-05T04:49:32.742Z,101137.72
2022-11-05T04:52:02.551Z,101161.50
2022-11-05T04:54:32.550Z,101157.69
2022-11-05T04:57:02.655Z,101139.63
2022-11-05T04:59:32.948Z,101147.72
2022-11-05T05:02:02.952Z,101141.06
2022-11-05T05:04:32.964Z,101086.50
2022-11-05T05:07:02.865Z,101129.63
2022-11-05T05:09:32.954Z,101103.16
2022-11-05T05:12:03.448Z,101135.22
2022-11-05T05:14:33.977Z,101110.66
2022-11-05T05:17:04.038Z,101083.44
2022-11-05T05:19:56.740Z,101108.66
2022-11-05T05:22:26.793Z,101113.50
2022-11-05T05:25:00.863Z,101111.41
2022-11-05T05:27:31.746Z,101110.81
2022-11-05T05:30:01.829Z,101108.34
2022-11-05T05:32:31.769Z,101098.81
2022-11-05T05:35:01.663Z,101098.63
2022-11-05T05:37:31.765Z,101090.94
2022-11-05T05:40:01.805Z,101084.91
2022-11-05T05:42:32.006Z,101079.28
2022-11-05T05:45:01.887Z,101079.94
2022-11-05T05:47:32.133Z,101075.97
2022-11-05T05:50:02.063Z,101059.31
2022-11-05T05:52:32.074Z,101040.63
2022-11-05T05:55:02.015Z,101058.53
2022-11-05T05:57:31.958Z,101053.13
2022-11-05T06:00:02.828Z,101016.94
2022-11-05T06:02:41.594Z,101037.94
2022-11-05T06:05:12.055Z,101032.34
2022-11-05T06:07:41.953Z,101028.63
2022-11-05T06:10:11.935Z,101029.44
2022-11-05T06:12:42.322Z,101029.44
2022-11-05T06:15:12.304Z,101015.69
2022-11-05T06:17:45.205Z,100948.72
2022-11-05T06:20:15.091Z,100999.47
2022-11-05T06:22:45.007Z,101005.31
2022-11-05T06:25:14.946Z,101011.53
2022-11-05T06:27:44.797Z,100997.00
2022-11-05T06:30:15.468Z,100998.22
2022-11-05T06:32:46.024Z,100993.25
2022-11-05T06:35:16.186Z,100992.22
2022-11-05T06:37:46.113Z,100991.16
2022-11-05T06:40:16.017Z,100992.41
2022-11-05T06:42:45.869Z,100982.84
2022-11-05T06:45:15.840Z,100987.00
2022-11-05T06:47:45.676Z,100986.78
2022-11-05T06:50:16.059Z,100955.81
2022-11-05T06:52:45.918Z,100983.25
2022-11-05T06:55:15.942Z,100928.78
2022-11-05T06:57:45.787Z,100977.41
2022-11-05T07:00:16.097Z,100952.91
2022-11-05T07:02:46.159Z,100972.44
2022-11-05T07:05:17.120Z,100968.25
2022-11-05T07:07:47.313Z,100956.38
2022-11-05T07:10:19.976Z,100932.47
2022-11-05T07:12:50.912Z,100950.34
2022-11-05T07:15:20.812Z,100942.44
2022-11-05T07:17:50.775Z,100940.34
2022-11-05T07:20:20.791Z,100928.06
2022-11-05T07:22:50.924Z,100931.19
2022-11-05T07:25:21.552Z,100921.22
2022-11-05T07:27:51.692Z,100918.28
2022-11-05T07:30:21.758Z,100916.63
2022-11-05T07:32:51.820Z,100925.78
2022-11-05T07:35:21.982Z,100915.97
2022-11-05T07:37:54.858Z,100820.03
2022-11-05T07:40:27.309Z,100905.31
2022-11-05T07:43:00.262Z,100759.59
2022-11-05T07:45:31.991Z,100904.41
2022-11-05T07:48:03.615Z,100895.63
2022-11-05T07:50:34.914Z,100906.06
2022-11-05T07:53:13.553Z,100823.94
2022-11-05T07:55:44.891Z,100836.97
2022-11-05T07:58:15.371Z,100899.97
2022-11-05T08:00:45.759Z,100904.91
2022-11-05T08:03:18.733Z,100897.34
2022-11-05T08:05:49.339Z,100901.88
2022-11-05T08:08:21.003Z,100901.19
2022-11-05T08:10:50.938Z,100889.16
2022-11-05T08:13:20.924Z,100899.28
2022-11-05T08:15:50.882Z,100886.16
2022-11-05T08:18:21.509Z,100898.38
2022-11-05T08:20:52.055Z,100902.69
2022-11-05T08:23:21.957Z,100896.28
2022-11-05T08:25:51.957Z,100907.03
2022-11-05T08:28:22.835Z,100902.66
2022-11-05T08:30:57.376Z,100848.50
2022-11-05T08:33:28.879Z,100899.81
2022-11-05T08:36:02.561Z,100897.72
2022-11-05T08:38:32.621Z,100909.16
2022-11-05T08:41:02.933Z,100909.47
2022-11-05T08:43:33.080Z,100906.94
2022-11-05T08:46:03.209Z,100891.50
2022-11-05T08:48:33.082Z,100903.31
2022-11-05T08:51:02.908Z,100909.81
2022-11-05T08:53:32.784Z,100853.50
2022-11-05T08:56:02.749Z,100909.47
2022-11-05T08:58:33.923Z,100913.22
2022-11-05T09:01:06.534Z,100837.81
2022-11-05T09:03:36.551Z,100919.25
2022-11-05T09:06:06.696Z,100919.94
2022-11-05T09:08:36.768Z,100921.59
2022-11-05T09:11:07.205Z,100921.97
2022-11-05T09:13:37.429Z,100907.50
2022-11-05T09:16:08.106Z,100924.91
2022-11-05T09:18:40.104Z,100873.16
2022-11-05T09:21:10.208Z,100929.06
2022-11-05T09:23:40.970Z,100936.16
2022-11-05T09:26:12.197Z,100941.59
2022-11-05T09:28:44.283Z,100945.34
2022-11-05T09:31:15.095Z,100931.31
2022-11-05T09:33:45.106Z,100950.78
2022-11-05T09:36:15.125Z,100914.72
2022-11-05T09:38:45.074Z,100957.88
2022-11-05T09:41:23.755Z,100938.16
2022-11-05T09:44:04.705Z,100924.53
2022-11-05T09:46:47.836Z,100983.31
2022-11-05T09:49:43.154Z,100895.78
2022-11-05T09:52:26.586Z,100914.88
2022-11-05T09:55:38.631Z,100980.22
2022-11-05T09:58:28.516Z,100940.63
2022-11-05T10:01:00.577Z,100930.28
2022-11-05T10:03:52.552Z,100934.69
2022-11-05T10:06:25.548Z,101008.78
2022-11-05T10:09:10.113Z,100999.00
2022-11-05T10:11:46.779Z,100877.72
2022-11-05T10:14:33.382Z,100983.91
2022-11-05T10:17:14.240Z,100942.91
2022-11-05T10:19:52.969Z,100935.13
2022-11-05T10:22:23.554Z,101017.25
2022-11-05T10:24:56.149Z,100953.00
2022-11-05T10:27:30.564Z,101033.50
2022-11-05T10:30:01.271Z,101035.97
2022-11-05T10:32:44.292Z,101061.44
2022-11-05T10:35:23.385Z,100980.44
2022-11-05T10:37:56.912Z,101057.84
2022-11-05T10:40:54.596Z,101056.03
2022-11-05T10:43:44.432Z,101060.19
2022-11-05T10:46:47.454Z,101070.66
2022-11-05T10:49:53.147Z,101040.31
2022-11-05T10:52:35.292Z,101018.75
2022-11-05T10:55:34.063Z,101070.66
2022-11-05T10:58:22.084Z,101068.97
2022-11-05T11:00:54.559Z,101071.66
2022-11-05T11:03:47.271Z,101074.66
2022-11-05T11:06:26.129Z,101080.25
2022-11-05T11:09:01.216Z,101077.75
2022-11-05T11:11:37.906Z,101081.53
2022-11-05T11:14:13.715Z,101081.97
2022-11-05T11:16:49.519Z,101103.34
2022-11-05T11:19:22.654Z,101109.53
2022-11-05T11:22:05.518Z,101113.38
2022-11-05T11:25:19.373Z,101122.06
2022-11-05T11:27:50.069Z,101126.22
2022-11-05T11:30:21.783Z,101067.22
2022-11-05T11:32:52.033Z,101126.09
2022-11-05T11:35:25.072Z,101057.75
2022-11-05T11:37:56.920Z,101136.75
2022-11-05T11:40:33.930Z,101143.84
2022-11-05T11:43:26.181Z,101118.06
2022-11-05T11:46:02.115Z,101147.72
2022-11-05T11:48:37.728Z,101158.47
2022-11-05T11:51:32.263Z,101161.44
2022-11-05T11:54:03.450Z,101176.00
2022-11-05T11:56:45.489Z,101082.72
2022-11-05T11:59:46.887Z,101174.03
2022-11-05T12:02:55.972Z,101106.03
2022-11-05T12:05:45.341Z,101192.31
2022-11-05T12:08:34.578Z,101190.22
2022-11-05T12:11:28.882Z,101202.75
2022-11-05T12:14:10.447Z,101217.97
2022-11-05T12:17:04.462Z,101195.34
2022-11-05T12:20:04.429Z,101231.13
2022-11-05T12:23:12.129Z,101210.78
2022-11-05T12:26:05.280Z,101233.66
2022-11-05T12:29:17.738Z,101172.72
2022-11-05T12:32:31.885Z,101190.63
2022-11-05T12:35:31.918Z,101133.84
2022-11-05T12:38:07.521Z,101186.47
2022-11-05T12:41:07.783Z,101287.44
2022-11-05T12:44:19.135Z,101298.50
2022-11-05T12:47:22.444Z,101306.19
2022-11-05T12:50:18.222Z,101320.78
2022-11-05T12:53:25.000Z,101313.91
2022-11-05T12:55:58.712Z,101321.22
2022-11-05T12:59:02.463Z,101330.78
2022-11-05T13:01:47.375Z,101274.38
2022-11-05T13:04:44.543Z,101345.00
2022-11-05T13:07:19.096Z,101372.69
2022-11-05T13:10:04.716Z,101345.84
2022-11-05T13:12:40.019Z,101376.69
2022-11-05T13:15:41.488Z,101359.56
2022-11-05T13:18:20.906Z,101315.19
2022-11-05T13:20:54.833Z,101391.69
2022-11-05T13:23:38.976Z,101394.19
2022-11-05T13:26:54.015Z,101382.91
2022-11-05T13:29:23.830Z,101390.41
2022-11-05T13:32:09.700Z,101319.13
2022-11-05T13:34:40.138Z,101391.22
2022-11-05T13:37:29.893Z,101358.09
2022-11-05T13:40:06.996Z,101354.94
2022-11-05T13:42:53.180Z,101300.72
2022-11-05T13:45:34.836Z,101385.81
2022-11-05T13:48:31.858Z,101307.56
2022-11-05T13:51:08.749Z,101396.19
2022-11-05T13:53:40.493Z,101392.47
2022-11-05T13:56:18.818Z,101399.13
2022-11-05T13:59:10.933Z,101398.06
2022-11-05T14:01:56.986Z,101342.38
2022-11-05T14:05:01.607Z,101323.19
2022-11-05T14:07:48.068Z,101322.13
2022-11-05T14:10:41.546Z,101404.50
2022-11-05T14:13:37.934Z,101395.72
2022-11-05T14:16:24.444Z,101394.91
2022-11-05T14:19:20.838Z,101400.91
2022-11-05T14:21:59.561Z,101394.91
2022-11-05T14:24:44.229Z,101401.97
2022-11-05T14:27:14.063Z,101399.06
2022-11-05T14:29:49.082Z,101345.22
2022-11-05T14:32:22.238Z,101407.38
2022-11-05T14:35:18.261Z,101394.41
2022-11-05T14:37:59.291Z,101351.44
2022-11-05T14:40:37.219Z,101320.19
2022-11-05T14:43:28.088Z,101333.47
2022-11-05T14:46:07.641Z,101338.06
2022-11-05T14:49:09.307Z,101398.53
2022-11-05T14:51:45.165Z,101289.47
2022-11-05T14:54:38.305Z,101250.72
2022-11-05T14:57:12.497Z,101396.25
2022-11-05T14:59:53.833Z,101394.75
2022-11-05T15:02:47.731Z,101314.88
2022-11-05T15:05:41.047Z,101391.41
2022-11-05T15:08:31.975Z,101390.16
2022-11-05T15:11:27.242Z,101322.56
2022-11-05T15:14:02.555Z,101390.81
2022-11-05T15:16:42.322Z,101323.38
2022-11-05T15:19:33.962Z,101387.63
2022-11-05T15:22:08.207Z,101380.34
2022-11-05T15:24:38.403Z,101390.56
2022-11-05T15:28:03.450Z,101388.84
2022-11-05T15:30:34.011Z,101383.03
2022-11-05T15:33:18.336Z,101378.47
2022-11-05T15:35:48.514Z,101380.56
2022-11-05T15:39:01.975Z,101364.69
2022-11-05T15:41:35.413Z,101338.00
2022-11-05T15:44:20.828Z,101364.75
2022-11-05T15:46:50.736Z,101366.41
2022-11-05T15:49:21.303Z,101370.75
2022-11-05T15:51:51.260Z,101360.16
2022-11-05T15:54:30.268Z,101380.75
2022-11-05T15:57:04.339Z,101368.69
2022-11-05T15:59:40.157Z,101340.72
2022-11-05T16:02:37.120Z,101335.94
2022-11-05T16:05:13.922Z,101367.81
2022-11-05T16:07:48.559Z,101336.81
2022-11-05T16:10:26.706Z,101358.47
2022-11-05T16:12:56.589Z,101352.22
2022-11-05T16:15:33.077Z,101364.09
2022-11-05T16:18:03.023Z,101352.41
2022-11-05T16:20:39.766Z,101263.16
2022-11-05T16:23:26.569Z,101349.28
2022-11-05T16:25:56.716Z,101359.34
2022-11-05T16:28:30.169Z,101287.09
2022-11-05T16:31:03.049Z,101321.78
2022-11-05T16:33:43.692Z,101353.28
2022-11-05T16:36:14.072Z,101347.25
2022-11-05T16:38:44.310Z,101345.56
2022-11-05T16:41:19.606Z,101252.13
2022-11-05T16:43:55.364Z,101307.16
2022-11-05T16:46:28.245Z,101343.47
2022-11-05T16:48:58.818Z,101342.41
2022-11-05T16:51:29.795Z,101264.63
2022-11-05T16:53:59.691Z,101334.66
2022-11-05T16:56:30.110Z,101333.00
2022-11-05T16:59:00.352Z,101323.44
2022-11-05T17:02:23.075Z,101302.53
2022-11-05T17:04:53.030Z,101313.69
2022-11-05T17:07:22.849Z,101312.56
2022-11-05T17:10:22.301Z,101307.16
2022-11-05T17:12:52.704Z,101300.91
2022-11-05T17:15:40.733Z,101308.56
2022-11-05T17:18:17.919Z,101315.25
2022-11-05T17:20:51.780Z,101300.91
2022-11-05T17:23:24.250Z,101213.69
2022-11-05T17:26:02.894Z,101203.69
2022-11-05T17:28:34.182Z,101279.22
2022-11-05T17:31:07.147Z,101207.06
2022-11-05T17:33:37.127Z,101286.50
2022-11-05T17:36:09.485Z,101297.97
2022-11-05T17:38:39.474Z,101255.47
2022-11-05T17:41:14.228Z,101263.16
2022-11-05T17:43:45.026Z,101289.63
2022-11-05T17:46:19.718Z,101209.16
2022-11-05T17:48:49.965Z,101284.63
2022-11-05T17:51:20.641Z,101276.91
2022-11-05T17:53:50.758Z,101278.34
2022-11-05T17:56:32.469Z,101265.88
2022-11-05T17:59:03.503Z,101263.38
2022-11-05T18:01:36.664Z,101271.03
2022-11-05T18:04:08.977Z,101261.06
2022-11-05T18:06:41.190Z,101174.13
2022-11-05T18:09:12.317Z,101251.47
2022-11-05T18:11:42.934Z,101233.09
2022-11-05T18:14:13.326Z,101237.97
2022-11-05T18:16:43.203Z,101209.59
2022-11-05T18:19:13.224Z,101232.16
2022-11-05T18:21:43.115Z,101232.53
2022-11-05T18:24:13.914Z,101227.91
2022-11-05T18:26:44.290Z,101234.03
2022-11-05T18:29:15.012Z,101215.69
2022-11-05T18:31:45.033Z,101203.56
2022-11-05T18:34:15.084Z,101209.69
2022-11-05T18:36:46.196Z,101204.28
2022-11-05T18:39:16.192Z,101202.13
2022-11-05T18:41:46.210Z,101203.78
2022-11-05T18:44:17.710Z,101207.53
2022-11-05T18:47:02.658Z,101196.50
2022-11-05T18:49:32.935Z,101196.72
2022-11-05T18:52:03.036Z,101184.22
2022-11-05T18:54:33.245Z,101191.50
2022-11-05T18:57:03.400Z,101152.94
2022-11-05T18:59:39.168Z,101174.22
2022-11-05T19:02:12.042Z,101195.66
2022-11-05T19:04:55.296Z,101182.91
2022-11-05T19:07:32.705Z,101179.22
2022-11-05T19:10:02.640Z,101181.25
2022-11-05T19:12:32.530Z,101182.91
2022-11-05T19:15:03.117Z,101184.16
2022-11-05T19:17:36.773Z,101165.88
2022-11-05T19:20:07.806Z,101174.56
2022-11-05T19:22:37.908Z,101174.16
2022-11-05T19:25:08.882Z,101172.91
2022-11-05T19:27:39.683Z,101153.31
2022-11-05T19:30:10.743Z,101168.97
2022-11-05T19:32:40.652Z,101166.28
2022-11-05T19:35:11.067Z,101138.94
2022-11-05T19:37:40.907Z,101170.38
2022-11-05T19:40:12.230Z,101162.94
2022-11-05T19:42:42.738Z,101157.88
2022-11-05T19:48:02.957Z,101115.16
2022-11-05T19:50:33.306Z,101167.69
2022-11-05T19:53:03.281Z,101161.63
2022-11-05T19:55:33.212Z,101157.69
2022-11-05T19:58:03.110Z,101162.03
2022-11-05T20:00:33.118Z,101156.63
2022-11-05T20:03:04.029Z,101154.16
2022-11-05T20:05:36.968Z,101162.03
2022-11-05T20:08:07.361Z,101154.97
2022-11-05T20:10:39.079Z,101165.38
2022-11-05T20:13:09.065Z,101119.69
2022-11-05T20:15:40.028Z,101156.59
2022-11-05T20:18:10.287Z,101154.09
2022-11-05T20:20:40.880Z,101157.44
2022-11-05T20:23:10.891Z,101154.75
2022-11-05T20:25:41.327Z,101143.31
2022-11-05T20:28:11.647Z,101131.66
2022-11-05T20:30:42.751Z,101147.69
2022-11-05T20:33:13.220Z,101129.97
2022-11-05T20:35:43.804Z,101147.88
2022-11-05T20:38:13.966Z,101119.31
2022-11-05T20:40:44.343Z,101113.69
2022-11-05T20:43:14.265Z,101145.56
2022-11-05T20:45:44.114Z,101140.75
2022-11-05T20:48:14.865Z,101149.09
2022-11-05T20:50:46.233Z,101145.56
2022-11-05T20:53:16.337Z,101143.09
2022-11-05T20:55:48.960Z,101060.50
2022-11-05T20:58:19.272Z,101145.31
2022-11-05T21:00:52.788Z,101143.22
2022-11-05T21:03:23.161Z,101157.31
2022-11-05T21:05:57.278Z,101078.13
2022-11-05T21:08:28.729Z,101147.06
2022-11-05T21:10:58.752Z,101163.50
2022-11-05T21:13:29.618Z,101156.06
2022-11-05T21:16:01.510Z,101160.41
2022-11-05T21:18:34.523Z,101179.28
2022-11-05T21:21:14.821Z,101157.47
2022-11-05T21:23:45.306Z,101151.50
2022-11-05T21:26:17.592Z,101140.41
2022-11-05T21:28:47.757Z,101154.56
2022-11-05T21:31:18.602Z,101145.16
2022-11-05T21:33:53.991Z,101148.09
2022-11-05T21:36:24.984Z,101163.91
2022-11-05T21:38:54.850Z,101161.41
2022-11-05T21:41:24.837Z,101155.16
2022-11-05T21:43:55.143Z,101137.84
2022-11-05T21:46:25.186Z,101160.94
2022-11-05T21:48:55.058Z,101168.84
2022-11-05T21:51:43.379Z,101162.63
2022-11-05T21:54:31.916Z,101156.38
2022-11-05T21:57:21.084Z,101162.63
2022-11-05T21:59:53.217Z,101141.97
2022-11-05T22:02:24.468Z,101165.88
2022-11-05T22:04:57.654Z,101070.88
2022-11-05T22:07:34.190Z,101152.53
2022-11-05T22:10:06.412Z,101173.34
2022-11-05T22:12:36.650Z,101170.88
2022-11-05T22:15:07.092Z,101174.19
2022-11-05T22:17:40.392Z,101168.56
2022-11-05T22:20:12.616Z,101157.53
2022-11-05T22:22:42.486Z,101166.31
2022-11-05T22:25:13.821Z,101142.13
2022-11-05T22:27:44.722Z,101150.84
2022-11-05T22:30:15.540Z,101162.13
2022-11-05T22:32:47.058Z,101147.53
2022-11-05T22:35:16.964Z,101152.53
2022-11-05T22:37:47.362Z,101168.31
2022-11-05T22:40:17.370Z,101110.28
2022-11-05T22:42:47.248Z,101175.75
2022-11-05T22:45:17.208Z,101168.50
2022-11-05T22:47:47.160Z,101166.19
2022-11-05T22:50:17.085Z,101178.44
2022-11-05T22:52:46.948Z,101173.88
2022-11-05T22:55:16.817Z,101174.09
2022-11-05T22:57:46.788Z,101176.97
2022-11-05T23:00:18.286Z,101131.47
2022-11-05T23:02:48.916Z,101180.72
2022-11-05T23:05:18.891Z,101185.72
2022-11-05T23:08:07.276Z,101187.81
2022-11-05T23:10:58.515Z,101165.75
2022-11-05T23:13:28.761Z,101169.94
2022-11-05T23:16:17.061Z,101198.72
2022-11-05T23:19:06.010Z,101191.91
2022-11-05T23:21:54.478Z,101176.69
2022-11-05T23:24:24.340Z,101198.81
2022-11-05T23:26:54.870Z,101200.13
2022-11-05T23:29:28.991Z,101197.66
2022-11-05T23:32:17.300Z,101205.59
2022-11-05T23:34:47.194Z,101205.38
2022-11-05T23:37:35.563Z,101211.84
2022-11-05T23:40:07.983Z,101119.69
2022-11-05T23:42:55.779Z,101209.63
2022-11-05T23:45:43.846Z,101194.16
2022-11-05T23:48:19.499Z,101227.72
2022-11-05T23:50:54.651Z,101235.66
2022-11-05T23:53:25.240Z,101228.78
2022-11-05T23:55:59.505Z,101233.97
2022-11-05T23:58:29.557Z,101243.59
